Time;durP1;ratioP1;P1;durP2;ratioP2;P2;SDS_P1;SDS_P2;PMS_P1;PMS_P2;Temp;Humidity;BMP_temperature;BMP_pressure;BME280_temperature;BME280_humidity;BME280_pressure;Samples;Min_cycle;Max_cycle;Signal;HPM_P1;HPM_P2
2021/03/14 00:01:27;;;;;;;27.20;12.43;;;;;;;8.03;64.92;96778.56;1784031;80;21149;-71
2021/03/14 00:03:53;;;;;;;14.98;8.40;;;;;;;7.96;66.79;96802.41;1787686;80;21150;-71
2021/03/14 00:06:20;;;;;;;8.15;4.95;;;;;;;7.78;68.25;96796.47;1784144;80;21506;-71
2021/03/14 00:08:46;;;;;;;8.93;5.00;;;;;;;7.59;68.71;96806.66;1816264;79;21134;-71
2021/03/14 00:11:12;;;;;;;19.20;9.25;;;;;;;7.41;68.43;96814.72;1784126;80;21403;-71
2021/03/14 00:13:39;;;;;;;16.95;5.97;;;;;;;7.22;68.88;96822.22;1784099;80;21133;-72
2021/03/14 00:16:06;;;;;;;7.15;3.70;;;;;;;7.05;70.58;96811.09;1784134;80;21070;-71
2021/03/14 00:18:39;;;;;;;8.33;4.28;;;;;;;6.90;70.76;96802.63;1784442;80;21090;-71
2021/03/14 00:21:05;;;;;;;13.10;8.10;;;;;;;6.80;69.97;96791.97;1784128;80;21008;-72
2021/03/14 00:23:31;;;;;;;9.58;5.10;;;;;;;6.75;70.94;96798.73;1784136;80;21197;-72
2021/03/14 00:25:58;;;;;;;9.35;6.33;;;;;;;6.72;71.49;96784.50;1783979;80;21138;-72
2021/03/14 00:28:24;;;;;;;17.25;9.80;;;;;;;6.68;72.88;96780.25;1784124;80;21134;-72
2021/03/14 00:30:50;;;;;;;21.65;10.40;;;;;;;6.67;71.43;96779.98;1784143;80;21516;-71
2021/03/14 00:33:16;;;;;;;15.65;9.65;;;;;;;6.66;71.59;96780.25;1787885;80;21472;-72
2021/03/14 00:35:43;;;;;;;7.90;5.58;;;;;;;6.62;71.17;96769.80;1784139;80;21206;-72
2021/03/14 00:38:09;;;;;;;8.63;4.70;;;;;;;6.61;71.79;96777.63;1816194;79;21155;-72
2021/03/14 00:40:35;;;;;;;8.58;5.62;;;;;;;6.58;71.70;96768.75;1784113;80;21059;-72
2021/03/14 00:43:03;;;;;;;9.78;5.47;;;;;;;6.55;72.59;96767.98;1784101;80;21165;-72
2021/03/14 00:45:35;;;;;;;7.70;4.62;;;;;;;6.54;72.87;96751.03;1785293;80;21042;-71
2021/03/14 00:48:03;;;;;;;4.67;2.60;;;;;;;6.52;72.90;96741.11;1789960;80;21241;-71
2021/03/14 00:50:38;;;;;;;5.72;3.80;;;;;;;6.56;73.82;96739.44;1789810;79;21074;-71
2021/03/14 00:53:04;;;;;;;6.45;2.67;;;;;;;6.54;74.31;96740.81;1789962;79;21082;-71
2021/03/14 00:55:31;;;;;;;7.60;4.65;;;;;;;6.56;73.73;96745.36;1789965;79;21439;-71
2021/03/14 00:57:57;;;;;;;6.22;3.45;;;;;;;6.56;74.00;96750.75;1790034;80;21138;-71
2021/03/14 01:00:23;;;;;;;11.93;5.62;;;;;;;6.56;73.66;96752.09;1789964;79;21201;-71
2021/03/14 01:02:50;;;;;;;8.53;4.10;;;;;;;6.55;73.65;96758.56;1760963;80;21153;-71
2021/03/14 01:05:16;;;;;;;10.03;4.37;;;;;;;6.56;73.88;96765.55;1789852;79;21416;-71
2021/03/14 01:07:42;;;;;;;14.68;7.45;;;;;;;6.56;73.60;96779.81;1789910;80;21126;-71
2021/03/14 01:10:10;;;;;;;11.65;5.35;;;;;;;6.57;73.76;96785.45;1789920;79;21094;-71
2021/03/14 01:12:38;;;;;;;4.92;2.77;;;;;;;6.57;74.22;96787.34;1789892;80;21193;-70
2021/03/14 01:15:08;;;;;;;5.80;3.22;;;;;;;6.62;73.70;96779.23;1790038;80;21551;-71
2021/03/14 01:17:35;;;;;;;5.33;2.60;;;;;;;6.61;73.22;96777.63;1790004;80;21106;-71
2021/03/14 01:20:03;;;;;;;4.60;2.50;;;;;;;6.58;72.74;96780.34;1789982;80;21107;-71
2021/03/14 01:22:29;;;;;;;4.10;2.52;;;;;;;6.52;72.53;96765.88;1790145;80;21117;-71
2021/03/14 01:24:55;;;;;;;5.95;2.62;;;;;;;6.48;72.24;96759.69;1789844;79;21200;-71
2021/03/14 01:27:21;;;;;;;3.17;2.42;;;;;;;6.45;72.27;96753.55;1789796;80;21101;-71
2021/03/14 01:29:47;;;;;;;3.52;1.80;;;;;;;6.44;72.50;96740.38;1789977;80;21154;-71
2021/03/14 01:32:14;;;;;;;6.85;2.92;;;;;;;6.42;72.15;96746.59;1789870;80;21110;-71
2021/03/14 01:34:40;;;;;;;6.00;3.25;;;;;;;6.41;71.89;96740.41;1789920;80;21483;-71
2021/03/14 01:37:06;;;;;;;6.15;2.98;;;;;;;6.42;71.81;96737.17;1789869;80;22085;-71
2021/03/14 01:39:32;;;;;;;4.58;2.33;;;;;;;6.38;71.52;96735.57;1789817;80;21027;-71
2021/03/14 01:41:58;;;;;;;2.87;1.50;;;;;;;6.38;70.97;96724.01;1789856;79;21114;-71
2021/03/14 01:44:24;;;;;;;5.53;2.17;;;;;;;6.37;70.29;96719.17;1789914;80;21137;-71
2021/03/14 01:46:50;;;;;;;5.62;2.83;;;;;;;6.34;69.98;96717.06;1785895;80;21091;-71
2021/03/14 01:49:16;;;;;;;9.78;3.77;;;;;;;6.29;70.18;96718.44;1784126;80;21070;-71
2021/03/14 01:51:43;;;;;;;10.13;1.82;;;;;;;6.26;69.91;96720.36;1753329;80;21055;-71
2021/03/14 01:54:10;;;;;;;6.97;4.00;;;;;;;6.27;69.63;96744.03;1784061;80;21066;-71
2021/03/14 01:56:36;;;;;;;4.85;3.10;;;;;;;6.25;69.75;96742.17;1784011;80;21023;-71
2021/03/14 01:59:02;;;;;;;3.72;1.27;;;;;;;6.20;69.89;96726.87;1784045;80;21154;-71
2021/03/14 02:01:28;;;;;;;2.98;1.42;;;;;;;6.19;70.14;96738.17;1784050;80;22072;-71
2021/03/14 02:03:54;;;;;;;3.85;2.85;;;;;;;6.22;70.13;96747.55;1784042;80;21161;-71
2021/03/14 02:06:20;;;;;;;17.40;6.90;;;;;;;6.24;70.20;96746.75;1783995;80;21126;-71
2021/03/14 02:08:47;;;;;;;5.20;2.95;;;;;;;6.21;70.29;96733.30;1784089;80;21142;-71
2021/03/14 02:11:13;;;;;;;9.68;4.87;;;;;;;6.22;70.10;96727.38;1784010;80;21011;-71
2021/03/14 02:13:46;;;;;;;10.13;6.42;;;;;;;6.21;69.87;96719.05;1784133;80;22235;-71
2021/03/14 02:16:26;;;;;;;4.62;2.20;;;;;;;6.21;69.63;96710.98;1784077;80;21047;-70
2021/03/14 02:18:57;;;;;;;4.55;1.55;;;;;;;6.23;69.61;96714.19;1783553;80;21083;-72
2021/03/14 02:21:23;;;;;;;2.40;1.25;;;;;;;6.22;69.27;96717.97;1784041;80;21047;-71
2021/03/14 02:24:10;;;;;;;21.68;10.13;;;;;;;6.19;68.82;96716.66;1784147;80;21102;-71
2021/03/14 02:26:57;;;;;;;28.25;11.45;;;;;;;6.16;68.82;96726.64;1756864;80;23705;-71
2021/03/14 02:29:23;;;;;;;2.37;1.17;;;;;;;6.14;68.67;96725.30;1783982;80;21067;-70
2021/03/14 02:31:51;;;;;;;2.52;1.50;;;;;;;6.15;67.83;96696.80;1787703;80;21127;-70
2021/03/14 02:34:27;;;;;;;2.27;1.15;;;;;;;6.20;68.18;96690.55;1784202;80;21158;-71
2021/03/14 02:36:53;;;;;;;1.55;1.02;;;;;;;6.22;68.11;96698.59;1816171;79;21091;-72
2021/03/14 02:39:21;;;;;;;1.15;0.80;;;;;;;6.24;68.18;96696.98;1753480;80;22066;-71
2021/03/14 02:41:51;;;;;;;1.47;0.80;;;;;;;6.24;68.25;96675.47;1753424;80;21158;-71
2021/03/14 02:44:17;;;;;;;1.52;0.88;;;;;;;6.21;68.05;96713.12;1784059;80;21150;-72
2021/03/14 02:46:44;;;;;;;1.80;1.00;;;;;;;6.18;67.95;96718.28;1783969;80;21030;-71
2021/03/14 02:49:11;;;;;;;1.70;1.07;;;;;;;6.14;67.77;96716.69;1753380;80;21051;-72
2021/03/14 02:51:39;;;;;;;1.50;1.12;;;;;;;6.07;67.27;96712.20;1783997;80;21256;-72
2021/03/14 02:54:06;;;;;;;0.80;0.70;;;;;;;6.06;67.10;96707.08;1784031;80;21223;-72
2021/03/14 02:56:33;;;;;;;1.67;0.68;;;;;;;6.05;67.04;96704.13;1753789;80;21039;-71
2021/03/14 02:58:59;;;;;;;1.27;0.90;;;;;;;6.03;66.92;96706.30;1784112;80;21154;-71
2021/03/14 03:01:25;;;;;;;1.37;1.00;;;;;;;6.02;66.84;96710.09;1784015;80;21036;-72
2021/03/14 03:03:51;;;;;;;0.93;0.60;;;;;;;6.00;66.63;96725.16;1784015;80;21489;-72
2021/03/14 03:06:17;;;;;;;1.10;0.78;;;;;;;5.99;66.49;96730.83;1783902;80;21186;-72
2021/03/14 03:08:44;;;;;;;1.42;1.07;;;;;;;5.99;66.44;96730.83;1783986;80;21542;-72
2021/03/14 03:11:14;;;;;;;2.20;1.10;;;;;;;5.98;66.54;96735.91;1859393;77;21023;-71
2021/03/14 03:13:40;;;;;;;3.02;1.42;;;;;;;5.96;66.57;96739.44;1859423;77;21074;-72
2021/03/14 03:16:08;;;;;;;4.80;1.10;;;;;;;5.90;66.29;96720.67;1753311;80;21270;-71
2021/03/14 03:18:34;;;;;;;1.37;0.90;;;;;;;5.89;66.37;96706.91;1753295;80;21134;-72
2021/03/14 03:21:00;;;;;;;2.10;0.85;;;;;;;5.89;65.95;96723.05;1784053;80;21483;-72
2021/03/14 03:23:26;;;;;;;1.95;1.32;;;;;;;5.91;66.29;96730.88;1787695;80;21579;-72
2021/03/14 03:25:53;;;;;;;1.95;1.17;;;;;;;5.91;66.31;96738.95;1783946;80;21039;-72
2021/03/14 03:28:19;;;;;;;2.45;1.05;;;;;;;5.89;66.33;96744.55;1816266;79;21563;-72
2021/03/14 03:30:45;;;;;;;0.88;0.75;;;;;;;5.90;66.30;96746.73;1783996;80;21495;-72
2021/03/14 03:33:11;;;;;;;2.22;1.17;;;;;;;5.86;66.46;96742.44;1784017;80;21175;-71
2021/03/14 03:35:37;;;;;;;1.87;1.10;;;;;;;5.84;66.44;96745.95;1784071;80;21122;-72
2021/03/14 03:38:03;;;;;;;2.67;1.30;;;;;;;5.81;66.63;96725.52;1784123;80;21043;-71
2021/03/14 03:40:31;;;;;;;2.22;1.35;;;;;;;5.79;66.88;96731.19;1783982;80;21194;-72
2021/03/14 03:43:21;;;;;;;4.80;2.50;;;;;;;5.78;67.12;96733.62;1783899;80;21130;-72
2021/03/14 03:45:49;;;;;;;3.05;2.58;;;;;;;5.78;67.82;96736.85;1784056;80;21153;-71
2021/03/14 03:48:23;;;;;;;3.90;2.65;;;;;;;5.73;68.02;96744.97;1783963;80;21497;-71
2021/03/14 03:50:55;;;;;;;3.67;2.72;;;;;;;5.62;68.69;96741.52;1783839;80;21102;-72
2021/03/14 03:53:21;;;;;;;3.77;2.67;;;;;;;5.51;68.70;96739.44;1784280;80;21187;-72
2021/03/14 03:55:47;;;;;;;4.03;2.40;;;;;;;5.37;68.96;96729.84;1784077;80;21121;-72
2021/03/14 03:58:13;;;;;;;5.87;3.20;;;;;;;5.28;68.91;96737.41;1712148;80;21055;-71
2021/03/14 04:00:40;;;;;;;7.08;5.62;;;;;;;5.19;69.22;96742.56;1784175;80;21082;-71
2021/03/14 04:03:06;;;;;;;6.53;5.37;;;;;;;5.12;69.32;96733.20;1784125;80;21059;-72
2021/03/14 04:05:32;;;;;;;5.05;3.42;;;;;;;5.03;69.60;96735.65;1784182;80;22012;-71
2021/03/14 04:07:58;;;;;;;5.20;2.17;;;;;;;4.98;69.88;96745.89;1784072;80;21130;-71
2021/03/14 04:10:26;;;;;;;4.87;2.08;;;;;;;4.97;70.90;96740.80;1784141;80;21527;-72
2021/03/14 04:12:52;;;;;;;4.30;2.37;;;;;;;4.86;70.72;96740.55;1753856;80;21436;-71
2021/03/14 04:15:23;;;;;;;4.30;2.10;;;;;;;4.85;71.85;96736.26;1784142;80;21130;-71
2021/03/14 04:17:50;;;;;;;3.47;2.20;;;;;;;4.80;71.48;96744.61;1783777;80;21194;-72
2021/03/14 04:20:22;;;;;;;5.62;2.80;;;;;;;4.84;72.28;96740.02;1784050;80;21413;-71
2021/03/14 04:22:54;;;;;;;5.70;2.87;;;;;;;4.80;71.90;96741.13;1784172;80;21150;-70
2021/03/14 04:25:21;;;;;;;6.12;3.33;;;;;;;4.80;71.66;96734.41;1784157;80;21503;-71
2021/03/14 04:27:48;;;;;;;4.35;2.58;;;;;;;4.76;71.61;96732.80;1784203;80;21140;-71
2021/03/14 04:30:16;;;;;;;2.22;1.30;;;;;;;4.77;71.64;96744.33;1784095;80;22358;-71
2021/03/14 04:32:42;;;;;;;1.95;1.00;;;;;;;4.76;71.46;96742.73;1784046;80;21039;-71
2021/03/14 04:35:09;;;;;;;3.22;1.30;;;;;;;4.76;71.17;96756.14;1784114;80;21123;-71
2021/03/14 04:37:38;;;;;;;3.98;1.50;;;;;;;4.76;71.14;96765.00;1784179;80;21032;-71
2021/03/14 04:40:07;;;;;;;2.27;1.47;;;;;;;4.74;71.09;96760.99;1784460;80;21121;-71
2021/03/14 04:42:34;;;;;;;2.00;1.20;;;;;;;4.75;71.06;96747.83;1784086;80;21291;-71
2021/03/14 04:45:00;;;;;;;5.97;4.30;;;;;;;4.76;71.06;96756.95;1784088;80;21511;-71
2021/03/14 04:47:26;;;;;;;2.55;1.85;;;;;;;4.78;71.09;96737.88;1784090;80;21039;-71
2021/03/14 04:49:52;;;;;;;4.08;1.60;;;;;;;4.81;71.53;96746.21;1784158;80;21426;-71
2021/03/14 04:52:19;;;;;;;4.37;2.75;;;;;;;4.86;71.51;96747.26;1784203;80;21484;-71
2021/03/14 04:54:49;;;;;;;6.50;3.35;;;;;;;4.87;71.94;96743.49;1784143;80;21124;-71
2021/03/14 04:57:17;;;;;;;6.80;4.08;;;;;;;4.82;71.88;96745.67;1753540;80;21512;-71
2021/03/14 04:59:43;;;;;;;9.20;6.75;;;;;;;4.78;73.96;96737.34;1784057;80;21039;-71
2021/03/14 05:02:11;;;;;;;6.33;4.33;;;;;;;4.80;72.14;96735.22;1784174;80;21500;-71
2021/03/14 05:04:37;;;;;;;31.52;6.15;;;;;;;4.77;71.97;96726.89;1784073;80;21039;-71
2021/03/14 05:07:03;;;;;;;18.40;9.95;;;;;;;4.72;71.73;96724.23;1784131;80;21365;-71
2021/03/14 05:09:30;;;;;;;9.33;5.35;;;;;;;4.71;71.92;96723.98;1783999;80;21134;-71
2021/03/14 05:11:56;;;;;;;30.40;9.85;;;;;;;4.67;71.64;96718.88;1784066;80;21062;-71
2021/03/14 05:14:22;;;;;;;5.30;4.03;;;;;;;4.66;71.62;96711.36;1784079;80;21436;-71
2021/03/14 05:16:48;;;;;;;10.78;5.72;;;;;;;4.65;71.53;96693.66;1784088;80;21074;-71
2021/03/14 05:19:14;;;;;;;3.05;1.90;;;;;;;4.64;71.42;96700.11;1784070;80;21266;-71
2021/03/14 05:21:42;;;;;;;2.00;1.50;;;;;;;4.64;71.48;96705.48;1753326;80;21174;-71
2021/03/14 05:24:10;;;;;;;3.77;2.08;;;;;;;4.63;71.29;96707.09;1784078;80;21201;-71
2021/03/14 05:26:39;;;;;;;3.90;2.08;;;;;;;4.62;71.36;96707.63;1784141;80;27370;-71
2021/03/14 05:29:05;;;;;;;5.90;4.33;;;;;;;4.63;71.53;96709.78;1784292;80;21614;-71
2021/03/14 05:31:36;;;;;;;5.08;2.47;;;;;;;4.66;71.61;96708.68;1784065;80;21188;-71
2021/03/14 05:34:09;;;;;;;4.35;2.45;;;;;;;4.69;71.93;96714.03;1784048;80;21483;-71
2021/03/14 05:36:35;;;;;;;4.42;2.02;;;;;;;4.79;72.21;96708.66;1782836;80;21130;-72
2021/03/14 05:39:04;;;;;;;3.75;1.65;;;;;;;4.90;71.91;96708.87;1784071;80;21531;-71
2021/03/14 05:41:30;;;;;;;;;;;;;;;5.04;71.52;96703.18;1786709;80;21122;-71
2021/03/14 05:43:57;;;;;;;4.05;2.58;;;;;;;5.16;71.03;96688.61;1784068;80;21161;-71
2021/03/14 05:46:23;;;;;;;3.52;2.90;;;;;;;5.26;70.35;96685.86;1784059;80;21118;-71
2021/03/14 05:48:49;;;;;;;6.75;3.42;;;;;;;5.37;69.95;96681.48;1784020;80;21531;-71
2021/03/14 05:51:28;;;;;;;23.87;13.25;;;;;;;5.48;69.66;96698.36;1784053;80;21539;-71
2021/03/14 05:53:56;;;;;;;65.15;35.88;;;;;;;5.54;69.56;96699.91;1787764;80;21075;-71
2021/03/14 05:56:23;;;;;;;91.92;50.10;;;;;;;5.56;69.37;96711.75;1784041;80;22134;-71
2021/03/14 05:58:49;;;;;;;86.25;47.00;;;;;;;5.55;69.14;96706.09;1787589;80;21150;-71
2021/03/14 06:01:18;;;;;;;42.98;25.30;;;;;;;5.55;69.13;96706.89;1784036;80;21103;-71
2021/03/14 06:03:44;;;;;;;12.95;7.58;;;;;;;5.61;68.88;96717.08;1787576;80;21433;-71
2021/03/14 06:06:11;;;;;;;5.08;3.22;;;;;;;5.66;68.84;96730.48;1787760;80;21530;-71
2021/03/14 06:08:38;;;;;;;5.05;2.92;;;;;;;5.70;68.69;96739.59;1783980;80;21201;-71
2021/03/14 06:11:05;;;;;;;3.17;2.02;;;;;;;5.74;68.54;96754.09;1816072;79;21408;-71
2021/03/14 06:13:32;;;;;;;4.65;2.15;;;;;;;5.81;68.23;96755.93;1784061;80;21106;-71
2021/03/14 06:15:58;;;;;;;4.22;1.67;;;;;;;5.89;68.17;96750.47;1753284;80;21106;-71
2021/03/14 06:18:25;;;;;;;2.55;1.70;;;;;;;6.01;68.23;96743.44;1784151;80;21432;-71
2021/03/14 06:20:52;;;;;;;2.80;1.50;;;;;;;6.12;67.57;96749.80;1784020;80;21261;-71
2021/03/14 06:23:21;;;;;;;5.28;1.40;;;;;;;6.26;67.92;96751.84;1783960;80;21142;-71
2021/03/14 06:25:49;;;;;;;2.40;1.10;;;;;;;6.37;67.35;96747.97;1784084;80;21114;-71
2021/03/14 06:28:16;;;;;;;3.15;1.22;;;;;;;6.36;67.36;96745.02;1784232;80;21031;-71
2021/03/14 06:30:43;;;;;;;2.83;2.08;;;;;;;6.38;66.79;96749.57;1784111;80;21011;-71
2021/03/14 06:33:15;;;;;;;1.77;1.35;;;;;;;6.40;66.37;96737.43;1784005;80;21459;-71
2021/03/14 06:35:51;;;;;;;2.47;1.22;;;;;;;6.38;65.97;96731.53;1784039;80;21078;-71
2021/03/14 06:38:27;;;;;;;2.37;1.20;;;;;;;6.40;65.95;96735.28;1784135;80;21440;-71
2021/03/14 06:41:11;;;;;;;4.97;1.75;;;;;;;6.40;65.56;96739.32;1784113;80;21023;-71
2021/03/14 06:43:43;;;;;;;4.87;2.05;;;;;;;6.42;65.29;96748.73;1781663;80;21023;-71
2021/03/14 06:46:32;;;;;;;2.52;1.42;;;;;;;6.51;62.60;96755.65;1784086;80;21511;-71
2021/03/14 06:49:15;;;;;;;4.45;2.80;;;;;;;6.57;63.75;96772.53;1784102;80;21545;-71
2021/03/14 06:51:52;;;;;;;4.78;2.20;;;;;;;6.63;63.45;96778.13;1784067;80;21487;-71
2021/03/14 06:54:28;;;;;;;3.60;1.57;;;;;;;6.71;63.20;96774.83;1778938;80;21506;-71
2021/03/14 06:57:08;;;;;;;4.72;1.47;;;;;;;6.76;63.50;96767.52;1784043;80;21079;-70
2021/03/14 06:59:42;;;;;;;;;;;;;;;6.83;62.99;96750.19;1786652;80;21193;-70
2021/03/14 07:02:13;;;;;;;5.95;2.98;;;;;;;6.92;62.97;96764.12;1783974;80;20485;-72
2021/03/14 07:04:50;;;;;;;6.05;3.87;;;;;;;6.98;63.04;96767.53;1782585;80;21105;-71
2021/03/14 07:07:30;;;;;;;9.38;4.03;;;;;;;7.03;63.05;96770.98;1784084;80;21412;-71
2021/03/14 07:10:06;;;;;;;11.00;7.03;;;;;;;7.12;62.77;96775.19;1784051;80;21015;-71
2021/03/14 07:12:38;;;;;;;27.98;7.53;;;;;;;7.08;61.67;96775.49;1784114;80;21191;-71
2021/03/14 07:15:16;;;;;;;4.62;2.30;;;;;;;7.10;62.31;96775.23;1783957;80;21157;-70
2021/03/14 07:17:45;;;;;;;11.22;4.67;;;;;;;7.11;61.91;96770.09;1784261;80;21031;-71
2021/03/14 07:20:15;;;;;;;6.25;3.22;;;;;;;7.14;62.08;96762.23;1783788;80;21523;-71
2021/03/14 07:22:41;;;;;;;4.53;2.08;;;;;;;7.20;62.13;96762.44;1783994;80;21107;-71
2021/03/14 07:25:21;;;;;;;2.42;1.30;;;;;;;7.27;62.20;96762.09;1783953;80;21392;-72
2021/03/14 07:27:48;;;;;;;7.62;1.70;;;;;;;7.35;61.86;96763.60;1778256;80;21154;-71
2021/03/14 07:30:17;;;;;;;5.42;2.00;;;;;;;7.42;61.94;96752.98;1784147;80;21091;-71
2021/03/14 07:32:43;;;;;;;1.30;1.00;;;;;;;7.51;61.56;96758.78;1784240;80;21094;-71
2021/03/14 07:35:10;;;;;;;4.45;2.40;;;;;;;7.67;60.18;96756.69;1712567;80;21095;-71
2021/03/14 07:37:41;;;;;;;7.22;2.55;;;;;;;7.68;60.22;96763.67;1784215;80;22001;-71
2021/03/14 07:40:07;;;;;;;6.03;3.80;;;;;;;7.77;60.38;96784.85;1783403;80;21150;-71
2021/03/14 07:42:33;;;;;;;9.30;3.85;;;;;;;7.79;59.85;96779.98;1784334;80;21031;-71
2021/03/14 07:44:59;;;;;;;6.15;2.08;;;;;;;7.91;59.38;96778.19;1784230;80;21095;-71
2021/03/14 07:47:25;;;;;;;5.03;2.83;;;;;;;7.85;59.73;96776.11;1785082;80;21177;-71
2021/03/14 07:49:53;;;;;;;4.37;1.47;;;;;;;7.86;58.70;96772.34;1789983;80;21397;-71
2021/03/14 07:52:29;;;;;;;3.20;2.05;;;;;;;7.90;59.70;96780.09;1789896;80;21095;-71
2021/03/14 07:55:11;;;;;;;6.55;5.50;;;;;;;7.98;59.35;96794.02;1784958;80;21031;-70
2021/03/14 07:57:46;;;;;;;8.85;7.92;;;;;;;8.05;59.78;96800.66;1790041;79;21596;-71
2021/03/14 08:00:32;;;;;;;8.15;5.53;;;;;;;8.17;59.68;96807.73;1763308;80;21411;-71
2021/03/14 08:03:05;;;;;;;5.08;3.67;;;;;;;8.30;59.55;96809.45;1790100;80;22035;-70
2021/03/14 08:05:43;;;;;;;5.60;4.50;;;;;;;8.36;59.27;96802.34;1789882;79;21095;-71
2021/03/14 08:08:30;;;;;;;4.20;2.42;;;;;;;8.46;58.80;96810.85;1790102;80;21146;-70
2021/03/14 08:10:56;;;;;;;5.78;1.90;;;;;;;8.54;58.91;96814.20;1790075;80;21428;-72
2021/03/14 08:13:37;;;;;;;4.47;2.35;;;;;;;8.68;58.64;96827.20;1789989;80;21452;-72
2021/03/14 08:16:08;;;;;;;9.75;2.12;;;;;;;8.75;58.27;96843.03;1790071;80;21197;-70
2021/03/14 08:18:40;;;;;;;5.80;3.08;;;;;;;8.64;57.28;96837.00;1789858;80;21504;-70
2021/03/14 08:21:07;;;;;;;2.95;1.55;;;;;;;8.55;57.81;96840.67;1790029;80;21085;-71
2021/03/14 08:23:42;;;;;;;5.55;3.25;;;;;;;8.46;58.04;96841.89;1789994;79;21153;-71
2021/03/14 08:26:29;;;;;;;4.12;2.20;;;;;;;8.36;57.67;96838.78;1789172;80;21157;-71
2021/03/14 08:29:05;;;;;;;2.58;1.62;;;;;;;8.28;57.43;96837.27;1789922;79;21198;-72
2021/03/14 08:31:47;;;;;;;5.17;1.67;;;;;;;8.19;56.73;96840.63;1790014;80;21491;-72
2021/03/14 08:34:32;;;;;;;5.08;3.90;;;;;;;8.11;57.29;96846.67;1789977;79;21062;-71
2021/03/14 08:36:59;;;;;;;5.03;3.00;;;;;;;8.08;57.70;96847.82;1781257;80;21126;-71
2021/03/14 08:39:33;;;;;;;4.90;2.42;;;;;;;8.04;57.59;96850.31;1789997;79;21134;-71
2021/03/14 08:42:03;;;;;;;7.35;3.92;;;;;;;7.98;56.65;96843.92;1761539;80;21265;-71
2021/03/14 08:44:44;;;;;;;2.65;1.10;;;;;;;7.96;57.49;96850.16;1789845;80;21492;-70
2021/03/14 08:47:16;;;;;;;1.90;1.17;;;;;;;7.96;57.23;96840.17;1790027;80;21139;-72
2021/03/14 08:49:48;;;;;;;3.10;1.60;;;;;;;7.94;57.00;96840.98;1780263;80;21060;-72
2021/03/14 08:52:16;;;;;;;2.87;1.57;;;;;;;7.81;57.68;96844.42;1790103;79;21452;-72
2021/03/14 08:54:45;;;;;;;7.78;2.80;;;;;;;7.76;57.84;96839.08;1789870;79;21259;-72
2021/03/14 08:57:15;;;;;;;5.60;2.02;;;;;;;7.77;57.76;96836.09;1789515;80;21109;-72
2021/03/14 08:59:57;;;;;;;5.12;1.70;;;;;;;7.78;57.17;96843.11;1789970;80;21471;-70
2021/03/14 09:02:26;;;;;;;6.62;3.70;;;;;;;7.77;57.88;96848.22;1789956;80;21070;-71
2021/03/14 09:04:53;;;;;;;6.17;3.20;;;;;;;7.81;57.66;96841.17;1790030;80;21027;-72
2021/03/14 09:07:20;;;;;;;20.90;9.50;;;;;;;7.86;57.68;96838.94;1789915;79;21264;-72
2021/03/14 09:09:46;;;;;;;5.95;2.95;;;;;;;7.90;57.62;96842.67;1789806;80;21114;-72
2021/03/14 09:12:15;;;;;;;7.25;3.85;;;;;;;7.92;57.62;96837.78;1790005;80;21166;-72
2021/03/14 09:14:45;;;;;;;8.43;2.92;;;;;;;7.95;57.72;96840.44;1789991;80;21138;-72
2021/03/14 09:17:14;;;;;;;4.12;2.35;;;;;;;8.00;57.71;96833.09;1790020;80;21093;-70
2021/03/14 09:19:49;;;;;;;6.30;3.30;;;;;;;8.01;57.66;96844.67;1789992;80;21275;-70
2021/03/14 09:22:25;;;;;;;3.20;1.77;;;;;;;8.05;57.03;96839.77;1789953;80;21067;-71
2021/03/14 09:25:03;;;;;;;4.62;3.15;;;;;;;8.00;57.38;96850.63;1788972;80;21093;-71
2021/03/14 09:27:42;;;;;;;31.40;22.73;;;;;;;8.03;57.74;96857.32;1874004;76;27596;-71
2021/03/14 09:30:22;;;;;;;21.97;13.75;;;;;;;8.11;57.48;96860.72;1809216;78;21071;-71
2021/03/14 09:32:55;;;;;;;26.42;17.32;;;;;;;8.05;57.90;96864.60;1827393;78;21459;-72
2021/03/14 09:35:35;;;;;;;10.35;5.95;;;;;;;8.01;58.01;96867.06;1826279;77;20901;-71
2021/03/14 09:38:09;;;;;;;11.45;8.05;;;;;;;7.99;58.02;96868.45;1826832;78;21094;-71
2021/03/14 09:40:47;;;;;;;7.10;3.00;;;;;;;7.98;58.22;96869.00;1827380;77;20905;-71
2021/03/14 09:43:24;;;;;;;5.33;3.40;;;;;;;7.86;57.44;96865.39;1827389;78;21071;-71
2021/03/14 09:46:00;;;;;;;6.97;3.92;;;;;;;7.95;58.07;96867.41;1827256;77;21262;-72
2021/03/14 09:48:31;;;;;;;5.28;1.55;;;;;;;7.95;58.00;96872.80;1826454;78;21073;-71
2021/03/14 09:51:08;;;;;;;2.62;1.72;;;;;;;7.95;57.33;96878.20;1827419;77;21070;-71
2021/03/14 09:53:37;;;;;;;4.67;1.90;;;;;;;7.82;57.61;96885.13;1827329;78;21090;-71
2021/03/14 09:56:14;;;;;;;3.80;1.90;;;;;;;7.76;57.60;96890.31;1827404;77;21093;-71
2021/03/14 09:58:40;;;;;;;5.85;2.45;;;;;;;7.70;57.98;96893.64;1827312;78;21186;-71
2021/03/14 10:01:09;;;;;;;5.42;3.12;;;;;;;7.69;58.16;96889.86;1827276;77;21054;-71
2021/03/14 10:03:35;;;;;;;8.08;3.92;;;;;;;7.71;57.95;96893.09;1827490;78;21054;-71
2021/03/14 10:06:03;;;;;;;4.45;2.27;;;;;;;7.68;58.27;96901.73;1827193;77;21110;-71
2021/03/14 10:08:35;;;;;;;5.45;2.67;;;;;;;7.67;57.90;96910.38;1827440;78;21372;-71
2021/03/14 10:11:11;;;;;;;8.83;2.77;;;;;;;7.60;58.31;96917.45;1795365;78;21253;-72
2021/03/14 10:13:36;;;;;;;6.75;2.70;;;;;;;7.58;58.28;96926.92;1827255;78;21087;-72
2021/03/14 10:16:05;;;;;;;5.67;3.35;;;;;;;7.54;58.51;96928.05;1795267;78;21094;-72
2021/03/14 10:18:32;;;;;;;;;;;;;;;7.52;58.68;96924.85;1829022;78;21146;-72
2021/03/14 10:21:27;;;;;;;3.50;1.95;;;;;;;7.48;58.72;96918.41;1827277;77;20232;-72
2021/03/14 10:24:24;;;;;;;3.52;2.25;;;;;;;7.46;58.71;96925.19;1827304;77;21186;-71
2021/03/14 10:27:04;;;;;;;7.33;2.77;;;;;;;7.50;58.66;96923.51;1827188;78;21546;-71
2021/03/14 10:29:32;;;;;;;23.80;11.95;;;;;;;7.52;58.61;96927.55;1827246;77;21168;-71
2021/03/14 10:32:00;;;;;;;7.67;4.72;;;;;;;7.50;58.77;96927.01;1827403;78;20908;-71
2021/03/14 10:34:26;;;;;;;5.78;1.95;;;;;;;7.48;58.88;96926.50;1827271;77;21050;-71
2021/03/14 10:36:53;;;;;;;5.08;2.33;;;;;;;7.46;59.03;96927.88;1827293;78;21191;-71
2021/03/14 10:39:29;;;;;;;6.25;4.70;;;;;;;7.47;59.24;96939.72;1826683;77;21031;-71
2021/03/14 10:41:55;;;;;;;6.47;3.27;;;;;;;7.52;59.28;96941.02;1826706;78;21026;-71
2021/03/14 10:44:23;;;;;;;10.45;5.53;;;;;;;7.68;59.14;96940.29;1826762;77;21095;-71
2021/03/14 10:46:53;;;;;;;17.10;9.83;;;;;;;7.72;59.06;96942.69;1826915;78;21153;-71
2021/03/14 10:49:28;;;;;;;25.95;12.88;;;;;;;7.74;58.97;96945.89;1826675;77;21817;-71
2021/03/14 10:51:59;;;;;;;8.60;5.15;;;;;;;7.71;58.66;96947.02;1826584;78;21074;-70
2021/03/14 10:54:38;;;;;;;31.20;21.35;;;;;;;7.67;58.94;96950.81;1826691;77;21141;-71
2021/03/14 10:57:14;;;;;;;29.40;17.12;;;;;;;7.71;59.01;96954.56;1826888;78;20964;-71
2021/03/14 10:59:40;;;;;;;22.77;11.75;;;;;;;7.73;58.98;96961.02;1826764;77;21110;-71
2021/03/14 11:02:23;;;;;;;9.68;4.40;;;;;;;7.66;58.93;96956.50;1826625;78;21283;-71
2021/03/14 11:04:57;;;;;;;91.10;48.05;;;;;;;7.61;58.92;96958.72;1826533;77;21117;-71
2021/03/14 11:07:30;;;;;;;18.57;11.30;;;;;;;7.63;59.08;96957.89;1826628;78;21094;-71
2021/03/14 11:10:14;;;;;;;57.95;24.45;;;;;;;7.76;58.89;96951.80;1826679;77;20889;-70
2021/03/14 11:12:42;;;;;;;65.20;34.55;;;;;;;7.81;59.02;96951.75;1826671;78;21075;-71
2021/03/14 11:15:24;;;;;;;19.50;16.75;;;;;;;8.07;58.23;96951.44;1827006;77;21183;-71
2021/03/14 11:17:50;;;;;;;32.95;17.52;;;;;;;8.14;58.23;96951.34;1825466;78;21519;-72
2021/03/14 11:20:18;;;;;;;47.65;18.98;;;;;;;8.36;58.31;96954.05;1826716;77;21039;-72
2021/03/14 11:22:51;;;;;;;36.53;17.12;;;;;;;8.54;57.97;96947.84;1826588;78;21523;-72
2021/03/14 11:25:18;;;;;;;23.85;10.55;;;;;;;8.72;56.90;96939.52;1796080;78;21400;-72
2021/03/14 11:27:46;;;;;;;95.00;40.33;;;;;;;8.62;56.88;96933.69;1824978;78;21176;-72
2021/03/14 11:30:13;;;;;;;30.62;13.80;;;;;;;8.80;56.96;96928.56;1824544;77;21106;-72
2021/03/14 11:32:39;;;;;;;50.20;24.60;;;;;;;8.88;56.78;96929.25;1824576;78;21505;-72
2021/03/14 11:35:07;;;;;;;24.05;10.28;;;;;;;8.94;56.11;96930.77;1824594;77;21083;-72
2021/03/14 11:37:34;;;;;;;47.30;24.07;;;;;;;9.05;55.83;96923.55;1824587;78;21074;-72
2021/03/14 11:40:00;;;;;;;145.12;87.97;;;;;;;9.18;55.72;96931.45;1797211;78;21134;-72
2021/03/14 11:42:26;;;;;;;51.30;26.68;;;;;;;9.24;54.37;96937.03;1824618;78;21127;-72
2021/03/14 11:44:55;;;;;;;35.00;19.73;;;;;;;9.29;54.35;96925.31;1824585;77;21102;-72
2021/03/14 11:47:22;;;;;;;28.15;14.73;;;;;;;9.31;54.48;96922.58;1824609;78;21111;-72
2021/03/14 11:49:49;;;;;;;51.08;23.40;;;;;;;9.35;55.15;96922.78;1824631;77;21063;-72
2021/03/14 11:52:15;;;;;;;221.10;87.62;;;;;;;9.40;54.95;96927.27;1824559;78;21115;-72